Time;durP1;ratioP1;P1;durP2;ratioP2;P2;SDS_P1;SDS_P2;PMS_P1;PMS_P2;Temp;Humidity;BMP_temperature;BMP_pressure;BME280_temperature;BME280_humidity;BME280_pressure;Samples;Min_cycle;Max_cycle;Signal;HPM_P1;HPM_P2
2021/04/08 00:00:23;;;;;;;7.80;2.50;;;;;;;17.95;39.56;100439.88;2068704;28;20030;-65
2021/04/08 00:01:24;;;;;;;3.97;2.73;;;;;;;17.95;39.88;100442.59;2068093;28;20034;-65
2021/04/08 00:02:24;;;;;;;5.93;3.30;;;;;;;17.96;39.71;100447.06;2066367;28;20277;-65
2021/04/08 00:03:25;;;;;;;4.77;2.70;;;;;;;17.95;39.76;100442.59;2065409;28;20068;-65
2021/04/08 00:04:25;;;;;;;5.23;2.53;;;;;;;17.96;39.73;100447.06;2068855;28;20077;-65
2021/04/08 00:05:26;;;;;;;4.40;3.10;;;;;;;17.96;39.86;100441.59;2069350;28;20026;-67
2021/04/08 00:06:26;;;;;;;5.23;2.90;;;;;;;17.98;39.82;100445.06;2063751;28;20194;-68
2021/04/08 00:07:27;;;;;;;4.73;2.57;;;;;;;17.96;39.76;100441.59;2069067;28;20334;-68
2021/04/08 00:08:27;;;;;;;5.57;2.93;;;;;;;17.97;39.73;100447.94;2069643;28;20041;-68
2021/04/08 00:09:27;;;;;;;4.13;3.10;;;;;;;17.98;39.63;100449.63;2069455;28;20489;-67
2021/04/08 00:10:28;;;;;;;4.27;3.00;;;;;;;17.97;39.72;100451.50;2065295;28;20117;-66
2021/04/08 00:11:28;;;;;;;4.07;2.13;;;;;;;17.98;39.67;100450.53;2062012;28;20058;-65
2021/04/08 00:12:29;;;;;;;3.60;2.33;;;;;;;17.99;39.76;100445.94;2068550;28;20059;-66
2021/04/08 00:13:29;;;;;;;4.97;2.80;;;;;;;17.99;39.65;100449.50;2069754;28;20030;-65
2021/04/08 00:14:30;;;;;;;3.80;2.80;;;;;;;17.98;39.58;100447.81;2068855;28;20898;-65
2021/04/08 00:15:30;;;;;;;4.90;2.97;;;;;;;17.96;39.76;100441.59;2063513;28;20026;-65
2021/04/08 00:16:31;;;;;;;3.70;2.53;;;;;;;17.96;39.74;100444.34;2069029;28;20139;-65
2021/04/08 00:17:31;;;;;;;7.00;3.20;;;;;;;17.96;39.67;100446.22;2067308;28;20113;-65
2021/04/08 00:18:32;;;;;;;3.60;2.57;;;;;;;17.95;39.64;100439.88;2065001;28;20767;-66
2021/04/08 00:19:32;;;;;;;4.17;2.63;;;;;;;17.94;39.69;100454.50;2063978;28;20050;-65
2021/04/08 00:20:33;;;;;;;3.40;2.37;;;;;;;17.94;39.67;100454.50;2069637;28;20038;-65
2021/04/08 00:21:34;;;;;;;5.23;3.17;;;;;;;17.94;39.61;100454.50;2069178;28;20028;-65
2021/04/08 00:22:34;;;;;;;4.30;2.40;;;;;;;17.93;39.82;100455.53;2070190;28;20034;-65
2021/04/08 00:23:35;;;;;;;4.57;2.57;;;;;;;17.92;39.79;100451.06;2068656;28;20407;-65
2021/04/08 00:24:35;;;;;;;3.57;2.30;;;;;;;17.93;39.74;100454.63;2069633;28;20105;-65
2021/04/08 00:25:37;;;;;;;4.03;2.47;;;;;;;17.93;39.67;100451.91;2070133;28;20045;-65
2021/04/08 00:26:37;;;;;;;4.13;2.08;;;;;;;17.93;39.70;100452.78;2068878;28;20021;-65
2021/04/08 00:27:38;;;;;;;4.87;3.07;;;;;;;17.92;39.80;100448.31;2068943;28;20037;-66
2021/04/08 00:28:38;;;;;;;4.60;2.83;;;;;;;17.91;39.77;100449.34;2062678;28;20027;-65
2021/04/08 00:29:38;;;;;;;4.30;2.50;;;;;;;17.90;39.78;100447.59;2064272;28;20034;-66
2021/04/08 00:30:45;;;;;;;6.03;2.67;;;;;;;17.90;39.67;100447.59;2070203;28;20029;-65
2021/04/08 00:31:45;;;;;;;4.95;2.58;;;;;;;17.90;39.75;100444.00;2066426;28;20050;-65
2021/04/08 00:32:46;;;;;;;3.63;2.73;;;;;;;17.89;39.73;100445.88;2068518;28;20061;-66
2021/04/08 00:33:47;;;;;;;5.77;3.10;;;;;;;17.89;39.87;100442.28;2067209;28;20121;-64
2021/04/08 00:34:47;;;;;;;3.77;2.20;;;;;;;17.89;39.70;100440.41;2069801;28;20026;-66
2021/04/08 00:35:48;;;;;;;3.77;2.73;;;;;;;17.89;39.78;100445.88;2069241;28;20022;-66
2021/04/08 00:36:48;;;;;;;8.40;2.80;;;;;;;17.88;40.04;100441.41;2068790;28;20037;-66
2021/04/08 00:37:49;;;;;;;3.40;2.03;;;;;;;17.89;39.70;100445.88;2069582;28;20030;-66
2021/04/08 00:38:49;;;;;;;3.42;2.10;;;;;;;17.88;39.86;100433.22;2069367;28;20358;-66
2021/04/08 00:39:50;;;;;;;3.97;2.40;;;;;;;17.88;39.83;100438.66;2070152;28;20478;-66
2021/04/08 00:40:50;;;;;;;4.07;2.57;;;;;;;17.88;39.78;100438.66;2065899;28;20046;-66
2021/04/08 00:41:51;;;;;;;4.50;2.43;;;;;;;17.88;39.88;100437.81;2069648;28;20029;-65
2021/04/08 00:42:52;;;;;;;3.85;2.38;;;;;;;17.87;39.84;100431.50;2069137;28;20026;-65
2021/04/08 00:43:52;;;;;;;4.10;2.37;;;;;;;17.86;39.98;100428.88;2064988;28;20113;-65
2021/04/08 00:44:53;;;;;;;4.00;1.90;;;;;;;17.86;39.76;100429.78;2071408;28;20026;-66
2021/04/08 00:45:53;;;;;;;7.20;2.57;;;;;;;17.85;39.87;100428.03;2066686;28;20036;-66
2021/04/08 00:46:54;;;;;;;3.83;2.40;;;;;;;17.85;39.90;100422.59;2071365;28;20120;-65
2021/04/08 00:47:54;;;;;;;4.10;2.50;;;;;;;17.86;40.05;100427.06;2070039;28;20131;-66
2021/04/08 00:48:55;;;;;;;5.33;2.87;;;;;;;17.86;40.13;100429.78;2070913;28;20053;-66
2021/04/08 00:49:55;;;;;;;3.60;2.33;;;;;;;17.87;39.86;100420.59;2070285;28;20565;-66
2021/04/08 00:50:56;;;;;;;5.57;2.60;;;;;;;17.87;39.83;100436.94;2071117;28;20065;-66
2021/04/08 00:51:57;;;;;;;3.47;2.37;;;;;;;17.90;39.87;100431.22;2068106;28;20030;-65
2021/04/08 00:52:59;;;;;;;4.40;2.33;;;;;;;17.90;39.72;100424.91;2070608;28;20087;-66
2021/04/08 00:54:00;;;;;;;3.47;2.25;;;;;;;17.91;39.89;100426.66;2064901;28;20073;-65
2021/04/08 00:55:01;;;;;;;3.70;2.13;;;;;;;17.92;39.79;100428.38;2068267;28;20030;-66
2021/04/08 00:56:02;;;;;;;4.17;2.50;;;;;;;17.91;39.92;100424.78;2070189;28;20133;-66
2021/04/08 00:57:03;;;;;;;4.97;2.78;;;;;;;17.92;39.75;100423.78;2069610;28;20048;-66
2021/04/08 00:58:05;;;;;;;5.03;2.97;;;;;;;17.91;39.92;100423.94;2070509;28;20033;-66
2021/04/08 00:59:05;;;;;;;4.30;2.30;;;;;;;17.92;39.95;100426.50;2071036;28;20272;-66
2021/04/08 01:00:07;;;;;;;3.58;2.58;;;;;;;17.91;39.83;100424.78;2069507;28;20601;-65
2021/04/08 01:01:07;;;;;;;2.78;2.10;;;;;;;17.91;40.00;100423.94;2063400;28;20109;-66
2021/04/08 01:02:09;;;;;;;3.73;2.57;;;;;;;17.93;39.88;100424.63;2069299;28;20038;-65
2021/04/08 01:03:11;;;;;;;6.40;2.70;;;;;;;17.93;40.02;100425.53;2069128;28;20033;-66
2021/04/08 01:04:11;;;;;;;3.95;2.60;;;;;;;17.93;39.77;100421.91;2062577;28;20116;-66
2021/04/08 01:05:12;;;;;;;3.88;2.05;;;;;;;17.91;39.84;100427.50;2069716;28;20028;-65
2021/04/08 01:06:12;;;;;;;4.07;2.57;;;;;;;17.91;39.83;100422.06;2062501;28;20041;-66
2021/04/08 01:07:13;;;;;;;3.73;2.50;;;;;;;17.91;39.95;100419.34;2069440;28;20030;-66
2021/04/08 01:08:14;;;;;;;5.53;2.50;;;;;;;17.93;39.84;100417.34;2070777;28;20080;-66
2021/04/08 01:09:15;;;;;;;4.43;3.15;;;;;;;17.93;39.85;100420.06;2069605;28;20064;-66
2021/04/08 01:10:23;;;;;;;4.00;2.50;;;;;;;17.94;39.92;100415.47;2070190;28;20034;-66
2021/04/08 01:11:23;;;;;;;4.85;2.80;;;;;;;17.93;39.90;100420.06;2041857;28;718500;-66
2021/04/08 01:12:24;;;;;;;3.40;2.27;;;;;;;17.93;39.86;100417.34;2071105;28;20038;-66
2021/04/08 01:13:26;;;;;;;4.23;2.33;;;;;;;17.93;39.81;100422.78;2071364;28;20022;-66
2021/04/08 01:14:26;;;;;;;;;;;;;;;17.88;39.83;100421.44;2066981;28;20121;-65
2021/04/08 01:15:27;;;;;;;3.78;1.95;;;;;;;17.90;39.91;100423.03;2068870;28;19916;-66
2021/04/08 01:16:27;;;;;;;4.07;2.40;;;;;;;17.89;40.06;100418.59;2061766;28;20076;-66
2021/04/08 01:17:42;;;;;;;4.03;2.50;;;;;;;17.89;39.83;100417.75;2071058;28;20029;-66
2021/04/08 01:19:16;;;;;;;4.35;2.47;;;;;;;17.90;39.83;100420.31;2071428;28;20092;-66
2021/04/08 01:20:44;;;;;;;3.95;2.30;;;;;;;17.86;39.87;100413.41;2067846;28;20045;-66
2021/04/08 01:22:13;;;;;;;4.32;2.50;;;;;;;17.87;39.98;100417.00;2065688;28;20029;-66
2021/04/08 01:23:35;;;;;;;4.47;2.50;;;;;;;17.86;40.14;100417.97;2069420;28;20445;-66
2021/04/08 01:25:14;;;;;;;2.92;2.33;;;;;;;17.83;40.21;100413.66;2066717;28;20030;-66
2021/04/08 01:26:45;;;;;;;4.20;2.50;;;;;;;17.82;40.02;100411.94;2066079;28;20512;-66
2021/04/08 01:28:26;;;;;;;3.90;2.58;;;;;;;17.82;40.17;100411.09;2071023;28;20048;-65
2021/04/08 01:29:45;;;;;;;4.15;1.80;;;;;;;17.81;39.91;100407.50;2069087;28;20087;-65
2021/04/08 01:30:51;;;;;;;3.40;2.03;;;;;;;17.81;40.15;100404.78;2069146;28;20032;-65
2021/04/08 01:31:52;;;;;;;4.15;2.72;;;;;;;17.82;40.03;100406.50;2063745;28;20175;-66
2021/04/08 01:32:55;;;;;;;2.78;2.30;;;;;;;17.82;40.08;100406.50;2070134;28;20103;-66
2021/04/08 01:34:00;;;;;;;4.95;2.53;;;;;;;17.82;40.01;100405.63;2070707;28;20136;-66
2021/04/08 01:35:03;;;;;;;3.20;2.00;;;;;;;17.82;40.16;100401.03;2066687;28;20161;-66
2021/04/08 01:36:08;;;;;;;3.75;2.08;;;;;;;17.82;40.08;100405.63;2070704;28;20722;-66
2021/04/08 01:37:10;;;;;;;3.40;2.25;;;;;;;17.82;40.26;100401.03;2070483;28;20026;-66
2021/04/08 01:38:18;;;;;;;4.63;2.28;;;;;;;17.82;40.05;100406.50;2067618;28;20460;-66
2021/04/08 01:39:19;;;;;;;4.25;2.33;;;;;;;17.83;40.24;100397.31;2069131;28;20117;-66
2021/04/08 01:40:21;;;;;;;4.00;2.10;;;;;;;17.84;39.90;100396.31;2068786;28;20432;-66
2021/04/08 01:41:24;;;;;;;2.78;2.13;;;;;;;17.83;40.02;100397.31;2070213;28;20040;-65
2021/04/08 01:42:26;;;;;;;3.85;2.28;;;;;;;17.83;40.08;100396.44;2067589;28;20153;-66
2021/04/08 01:43:31;;;;;;;3.20;1.90;;;;;;;17.82;40.09;100394.72;2069741;28;20040;-66
2021/04/08 01:44:34;;;;;;;4.03;2.40;;;;;;;17.82;40.08;100401.03;2061726;28;20037;-66
2021/04/08 01:45:35;;;;;;;3.97;2.17;;;;;;;17.84;40.12;100399.06;2064616;28;20100;-66
2021/04/08 01:46:39;;;;;;;4.50;2.37;;;;;;;17.82;39.97;100392.88;2064163;28;20021;-65
2021/04/08 01:47:43;;;;;;;3.70;2.40;;;;;;;17.84;39.95;100393.59;2071453;28;20029;-65
2021/04/08 01:48:46;;;;;;;4.53;2.58;;;;;;;17.87;39.89;100401.50;2066665;28;20442;-65
2021/04/08 01:49:48;;;;;;;3.65;2.40;;;;;;;17.88;39.96;100396.91;2064577;28;20034;-66
2021/04/08 01:50:55;;;;;;;2.97;2.20;;;;;;;17.86;40.01;100391.59;2070082;28;20022;-66
2021/04/08 01:51:57;;;;;;;4.70;2.72;;;;;;;17.86;40.08;100386.16;2069657;28;20115;-67
2021/04/08 01:52:59;;;;;;;3.28;2.15;;;;;;;17.88;40.07;100389.56;2071477;28;20021;-66
2021/04/08 01:54:00;;;;;;;;;;;;;;;17.82;40.08;100390.13;2070319;28;20025;-66
2021/04/08 01:55:02;;;;;;;3.75;2.30;;;;;;;17.84;40.22;100388.13;2069196;28;19913;-66
2021/04/08 01:56:04;;;;;;;2.72;1.73;;;;;;;17.84;40.22;100390.88;2070481;28;20034;-66
2021/04/08 01:57:10;;;;;;;4.03;2.33;;;;;;;17.87;40.02;100397.91;2071190;28;20124;-66
2021/04/08 01:58:11;;;;;;;3.35;2.10;;;;;;;17.88;40.06;100395.03;2066647;28;20100;-66
2021/04/08 01:59:14;;;;;;;;;;;;;;;17.83;40.40;100391.84;2070221;28;20018;-66
2021/04/08 02:00:19;;;;;;;4.15;2.20;;;;;;;17.85;40.14;100392.59;2061766;28;19917;-66
2021/04/08 02:01:20;;;;;;;4.35;1.88;;;;;;;17.85;40.15;100392.59;2069538;28;20033;-66
2021/04/08 02:02:23;;;;;;;4.35;2.53;;;;;;;17.87;40.17;100393.31;2070511;28;20037;-66
2021/04/08 02:03:25;;;;;;;3.17;2.13;;;;;;;17.88;40.05;100399.63;2069789;28;20026;-65
2021/04/08 02:04:26;;;;;;;;;;;;;;;17.83;40.26;100393.72;2071547;28;20163;-66
2021/04/08 02:05:27;;;;;;;2.90;1.92;;;;;;;17.85;40.16;100395.31;2071258;28;19928;-65
2021/04/08 02:06:29;;;;;;;3.72;2.10;;;;;;;17.85;40.18;100400.75;2069950;28;20072;-65
2021/04/08 02:07:30;;;;;;;4.03;2.22;;;;;;;17.87;40.29;100398.78;2069735;28;20052;-65
2021/04/08 02:08:31;;;;;;;3.87;2.00;;;;;;;17.87;40.19;100403.38;2069561;28;20049;-65
2021/04/08 02:09:33;;;;;;;3.58;2.40;;;;;;;17.89;40.14;100402.22;2067916;28;20074;-65
2021/04/08 02:10:34;;;;;;;5.13;2.60;;;;;;;17.88;40.00;100400.50;2069042;28;20030;-65
2021/04/08 02:11:38;;;;;;;4.20;2.40;;;;;;;17.88;40.13;100397.75;2070679;28;20095;-65
2021/04/08 02:12:40;;;;;;;3.42;2.20;;;;;;;17.89;40.23;100390.47;2070359;28;20041;-65
2021/04/08 02:13:45;;;;;;;3.78;2.10;;;;;;;17.88;40.08;100388.72;2070341;28;20040;-68
2021/04/08 02:14:47;;;;;;;2.90;2.13;;;;;;;17.89;39.97;100391.31;2071519;28;20022;-68
2021/04/08 02:15:49;;;;;;;3.15;2.13;;;;;;;17.87;39.95;100387.88;2066510;28;20026;-68
2021/04/08 02:16:51;;;;;;;4.63;2.03;;;;;;;17.90;40.00;100386.72;2060966;28;20039;-66
2021/04/08 02:17:55;;;;;;;3.08;2.20;;;;;;;17.89;40.03;100385.88;2063721;28;20054;-66
2021/04/08 02:18:57;;;;;;;3.28;2.08;;;;;;;17.88;40.03;100389.56;2062429;28;20030;-65
2021/04/08 02:20:00;;;;;;;3.47;2.35;;;;;;;17.88;39.99;100378.66;2063218;28;20034;-65
2021/04/08 02:21:01;;;;;;;2.72;2.25;;;;;;;17.87;39.84;100387.88;2069107;28;20497;-65
2021/04/08 02:22:02;;;;;;;4.35;2.30;;;;;;;17.87;40.15;100384.28;2070601;28;20390;-64
2021/04/08 02:23:04;;;;;;;3.70;2.10;;;;;;;17.87;40.13;100379.69;2069291;28;20034;-65
2021/04/08 02:24:06;;;;;;;3.92;2.08;;;;;;;17.85;39.89;100378.94;2070238;28;20641;-66
2021/04/08 02:25:08;;;;;;;3.47;2.22;;;;;;;17.86;40.09;100386.16;2070544;28;20052;-65
2021/04/08 02:26:10;;;;;;;3.83;2.35;;;;;;;17.86;40.04;100379.81;2068935;28;20100;-65
2021/04/08 02:27:11;;;;;;;;;;;;;;;17.81;39.95;100388.41;2071730;28;20408;-66
2021/04/08 02:28:12;;;;;;;3.72;2.42;;;;;;;17.81;40.20;100382.06;2067917;28;19956;-65
2021/04/08 02:29:15;;;;;;;2.70;2.03;;;;;;;17.80;40.15;100383.94;2069009;28;20041;-65
2021/04/08 02:30:18;;;;;;;3.47;2.67;;;;;;;17.81;40.17;100382.97;2070431;28;20641;-65
2021/04/08 02:31:19;;;;;;;4.82;2.60;;;;;;;17.81;40.39;100382.97;2069911;28;20036;-65
2021/04/08 02:32:21;;;;;;;3.17;2.30;;;;;;;17.82;40.18;100378.38;2070998;28;20116;-65
2021/04/08 02:33:25;;;;;;;;;;;;;;;17.76;40.25;100375.16;2071313;28;20551;-65
2021/04/08 02:34:26;;;;;;;4.13;2.13;;;;;;;17.79;40.19;100382.19;2069914;28;20477;-65
2021/04/08 02:35:27;;;;;;;3.75;2.25;;;;;;;17.79;40.28;100379.47;2071088;28;20104;-65
2021/04/08 02:36:27;;;;;;;3.30;2.20;;;;;;;17.78;40.20;100383.19;2067969;28;20468;-65
2021/04/08 02:37:28;;;;;;;3.03;2.30;;;;;;;17.78;40.28;100378.63;2070924;28;20038;-65
2021/04/08 02:38:30;;;;;;;3.43;2.00;;;;;;;17.80;40.10;100373.03;2068749;28;20112;-65
2021/04/08 02:39:31;;;;;;;2.85;2.03;;;;;;;17.80;40.10;100375.75;2069375;28;20046;-65
2021/04/08 02:40:31;;;;;;;4.67;2.30;;;;;;;17.80;40.18;100381.22;2070988;28;20169;-65
2021/04/08 02:41:46;;;;;;;2.23;1.70;;;;;;;17.78;40.18;100383.19;2069841;28;20026;-65
2021/04/08 02:42:47;;;;;;;3.38;2.13;;;;;;;17.78;40.19;100383.19;2069693;28;20604;-65
2021/04/08 02:43:48;;;;;;;4.03;2.28;;;;;;;17.79;40.17;100385.78;2071163;28;20496;-66
2021/04/08 02:44:48;;;;;;;3.20;2.07;;;;;;;17.80;40.24;100381.22;2068491;28;20459;-66
2021/04/08 02:45:49;;;;;;;2.60;2.00;;;;;;;17.80;40.12;100383.94;2071240;28;20104;-65
2021/04/08 02:46:50;;;;;;;3.63;1.92;;;;;;;17.82;40.09;100379.22;2066562;28;20095;-65
2021/04/08 02:47:50;;;;;;;2.97;2.13;;;;;;;17.83;40.18;100380.94;2069661;28;20038;-66
2021/04/08 02:48:51;;;;;;;3.63;2.37;;;;;;;17.83;40.08;100386.41;2069797;28;20029;-67
2021/04/08 02:49:51;;;;;;;3.40;2.10;;;;;;;17.85;39.96;100373.50;2060308;28;20026;-65
2021/04/08 02:50:55;;;;;;;3.13;1.90;;;;;;;17.85;40.15;100389.00;2070373;28;20040;-65
2021/04/08 02:52:00;;;;;;;3.38;2.30;;;;;;;17.83;40.06;100369.19;2070302;28;20053;-66
2021/04/08 02:53:09;;;;;;;3.47;2.20;;;;;;;17.84;40.32;100373.66;2069065;28;20538;-65
2021/04/08 02:54:30;;;;;;;2.88;2.13;;;;;;;17.85;40.00;100378.94;2070090;28;20030;-65
2021/04/08 02:55:46;;;;;;;2.88;1.90;;;;;;;17.82;40.07;100368.31;2068470;28;20069;-65
2021/04/08 02:56:52;;;;;;;3.30;1.88;;;;;;;17.82;40.33;100370.19;2066721;28;20026;-65
2021/04/08 02:58:03;;;;;;;3.60;2.05;;;;;;;17.84;40.18;100377.22;2071051;28;20030;-66
2021/04/08 02:59:21;;;;;;;3.65;2.30;;;;;;;17.84;40.17;100371.78;2069842;28;20090;-65
2021/04/08 03:00:27;;;;;;;4.90;2.05;;;;;;;17.83;40.15;100375.47;2069058;28;20030;-65
2021/04/08 03:01:30;;;;;;;4.28;2.58;;;;;;;17.83;40.16;100364.59;2070496;28;20033;-65
2021/04/08 03:02:32;;;;;;;9.23;2.78;;;;;;;17.86;40.03;100364.34;2070852;28;20045;-66
2021/04/08 03:03:42;;;;;;;2.97;1.98;;;;;;;17.86;40.08;100369.78;2069509;28;20033;-65
2021/04/08 03:04:47;;;;;;;2.42;1.60;;;;;;;17.87;40.27;100371.50;2062812;28;20061;-65
2021/04/08 03:05:47;;;;;;;3.33;2.08;;;;;;;17.86;40.13;100364.34;2067780;28;20103;-66
2021/04/08 03:06:50;;;;;;;3.00;1.67;;;;;;;17.88;39.99;100373.22;2069729;28;20026;-65
2021/04/08 03:07:53;;;;;;;3.97;2.03;;;;;;;17.88;40.07;100365.03;2070876;28;20036;-65
2021/04/08 03:08:57;;;;;;;3.15;2.10;;;;;;;17.87;40.07;100373.38;2070101;28;20544;-65
2021/04/08 03:09:58;;;;;;;2.65;1.70;;;;;;;17.87;40.15;100366.03;2064279;28;20041;-65
2021/04/08 03:11:02;;;;;;;3.53;2.13;;;;;;;17.86;40.17;100366.16;2069065;28;20084;-65
2021/04/08 03:12:08;;;;;;;3.67;2.05;;;;;;;17.85;40.18;100368.03;2070225;28;20100;-65
2021/04/08 03:13:12;;;;;;;4.20;2.28;;;;;;;17.84;40.12;100366.31;2070203;28;20584;-66
2021/04/08 03:14:14;;;;;;;2.75;1.77;;;;;;;17.85;40.23;100362.59;2064670;28;20027;-65
2021/04/08 03:15:23;;;;;;;2.78;1.70;;;;;;;17.83;40.10;100367.31;2069539;28;20499;-65
2021/04/08 03:16:25;;;;;;;3.17;1.95;;;;;;;17.83;40.31;100370.03;2065479;28;20129;-66
2021/04/08 03:17:30;;;;;;;3.55;1.92;;;;;;;17.82;40.01;100362.88;2063209;28;20018;-65
2021/04/08 03:18:32;;;;;;;3.05;2.33;;;;;;;17.84;40.20;100363.59;2068494;28;20121;-65
2021/04/08 03:19:34;;;;;;;3.17;1.70;;;;;;;17.84;40.14;100360.00;2063455;28;20030;-65
2021/04/08 03:20:37;;;;;;;3.00;1.83;;;;;;;17.82;40.08;100368.31;2069536;28;20025;-65
2021/04/08 03:21:38;;;;;;;3.03;1.98;;;;;;;17.83;40.12;100370.03;2069295;28;20022;-66
2021/04/08 03:22:39;;;;;;;6.27;2.17;;;;;;;17.82;40.14;100357.41;2069167;28;20034;-65
2021/04/08 03:23:42;;;;;;;2.88;1.80;;;;;;;17.81;40.15;100361.16;2070179;28;20096;-65
2021/04/08 03:24:43;;;;;;;3.45;2.00;;;;;;;17.82;40.09;100362.88;2070453;28;20100;-65
2021/04/08 03:25:47;;;;;;;2.83;1.92;;;;;;;17.81;40.21;100355.69;2068989;28;20444;-65
2021/04/08 03:26:49;;;;;;;2.67;1.90;;;;;;;17.79;40.18;100352.19;2070913;28;20021;-65
2021/04/08 03:27:50;;;;;;;2.78;1.95;;;;;;;17.79;40.35;100357.66;2070141;28;20025;-65
2021/04/08 03:28:52;;;;;;;4.50;2.10;;;;;;;17.80;40.20;100359.41;2067358;28;20061;-66
2021/04/08 03:29:54;;;;;;;2.50;1.50;;;;;;;17.81;40.18;100350.25;2061920;28;20081;-65
2021/04/08 03:30:55;;;;;;;;;;;;;;;17.76;40.10;100357.91;2065541;28;20030;-65
2021/04/08 03:31:55;;;;;;;3.30;1.75;;;;;;;17.77;40.23;100348.75;2070782;28;19913;-65
2021/04/08 03:32:56;;;;;;;3.57;2.20;;;;;;;17.77;40.17;100354.19;2069257;28;20029;-66
2021/04/08 03:33:58;;;;;;;2.90;1.97;;;;;;;17.77;40.22;100355.06;2070391;28;20157;-65
2021/04/08 03:34:59;;;;;;;2.63;1.83;;;;;;;17.78;40.22;100361.38;2069554;28;20095;-65
2021/04/08 03:36:01;;;;;;;4.07;2.20;;;;;;;17.77;40.10;100357.78;2068768;28;20122;-65
2021/04/08 03:37:01;;;;;;;4.15;2.35;;;;;;;17.77;40.14;100357.78;2069843;28;20029;-65
2021/04/08 03:38:04;;;;;;;2.10;1.60;;;;;;;17.77;40.23;100354.19;2068368;28;20599;-65
2021/04/08 03:39:06;;;;;;;2.40;1.80;;;;;;;17.77;40.24;100355.06;2069265;28;20029;-66
2021/04/08 03:40:08;;;;;;;3.35;1.90;;;;;;;17.78;40.22;100350.47;2070355;28;20401;-65
2021/04/08 03:41:09;;;;;;;2.65;1.67;;;;;;;17.78;40.30;100355.91;2068865;28;20192;-65
2021/04/08 03:42:17;;;;;;;3.92;1.83;;;;;;;17.79;40.15;100346.75;2070620;28;20083;-65
2021/04/08 03:43:19;;;;;;;2.40;1.75;;;;;;;17.79;40.25;100349.47;2068836;28;20041;-65
2021/04/08 03:44:21;;;;;;;3.78;2.30;;;;;;;17.80;40.14;100351.22;2070097;28;20124;-65
2021/04/08 03:45:21;;;;;;;2.45;1.65;;;;;;;17.79;40.21;100346.75;2069277;28;20164;-65
2021/04/08 03:46:23;;;;;;;2.90;1.83;;;;;;;17.80;40.39;100353.94;2068451;28;20084;-66
2021/04/08 03:47:24;;;;;;;3.25;2.47;;;;;;;17.79;40.32;100347.59;2067710;28;20032;-65
2021/04/08 03:48:26;;;;;;;4.40;2.13;;;;;;;17.81;40.14;100347.50;2068967;28;20085;-65
2021/04/08 03:49:29;;;;;;;3.03;1.92;;;;;;;17.82;40.18;100349.22;2070245;28;20105;-65
2021/04/08 03:50:30;;;;;;;3.28;1.90;;;;;;;17.83;40.25;100348.22;2069624;28;20076;-65
2021/04/08 03:51:33;;;;;;;3.08;1.92;;;;;;;17.82;40.33;100345.66;2068698;28;20018;-65
2021/04/08 03:52:35;;;;;;;2.72;2.00;;;;;;;17.83;40.16;100339.19;2070239;28;20041;-65
2021/04/08 03:53:36;;;;;;;2.42;1.80;;;;;;;17.82;40.19;100351.97;2069920;28;20125;-65
2021/04/08 03:54:38;;;;;;;2.67;1.60;;;;;;;17.83;40.14;100347.38;2069990;28;20038;-65
2021/04/08 03:55:41;;;;;;;2.88;1.83;;;;;;;17.85;40.28;100350.81;2067982;28;20028;-65
2021/04/08 03:56:46;;;;;;;2.30;1.60;;;;;;;17.84;40.21;100349.97;2069626;28;20037;-66
2021/04/08 03:57:46;;;;;;;2.53;1.80;;;;;;;17.85;40.26;100356.28;2070566;28;20475;-65
2021/04/08 03:58:47;;;;;;;2.77;1.60;;;;;;;17.84;40.29;100349.97;2063201;28;20025;-65
2021/04/08 03:59:48;;;;;;;2.33;1.80;;;;;;;17.85;40.25;100346.22;2070247;28;20448;-65
2021/04/08 04:00:49;;;;;;;2.47;1.75;;;;;;;17.84;40.02;100344.50;2069916;28;20260;-66
2021/04/08 04:01:50;;;;;;;2.23;1.57;;;;;;;17.85;40.21;100346.22;2068324;28;20026;-65
2021/04/08 04:02:51;;;;;;;2.88;1.73;;;;;;;17.85;40.23;100346.22;2066923;28;20564;-66
2021/04/08 04:03:53;;;;;;;2.97;1.80;;;;;;;17.87;40.22;100343.38;2065807;28;20125;-65
2021/04/08 04:04:54;;;;;;;4.57;1.80;;;;;;;17.85;40.14;100343.50;2062207;28;20549;-65
2021/04/08 04:05:55;;;;;;;1.80;1.38;;;;;;;17.85;40.14;100343.50;2070322;28;20029;-65
2021/04/08 04:06:56;;;;;;;2.73;1.70;;;;;;;17.85;40.32;100346.22;2067158;28;20018;-65
2021/04/08 04:07:57;;;;;;;3.40;1.88;;;;;;;17.85;40.22;100348.94;2062509;28;20084;-65
2021/04/08 04:08:58;;;;;;;2.53;1.80;;;;;;;17.86;40.28;100350.69;2066147;28;20104;-65
2021/04/08 04:10:00;;;;;;;2.87;1.70;;;;;;;17.86;39.95;100339.78;2063691;28;20064;-65
2021/04/08 04:11:00;;;;;;;3.13;1.90;;;;;;;17.86;40.09;100347.06;2069718;28;20033;-66
2021/04/08 04:12:02;;;;;;;2.80;1.80;;;;;;;17.85;40.17;100339.91;2069481;28;20021;-65
2021/04/08 04:13:04;;;;;;;2.92;1.77;;;;;;;17.85;40.17;100345.38;2070214;28;20735;-65
2021/04/08 04:14:07;;;;;;;;;;;;;;;17.78;40.25;100350.47;2065260;28;20034;-65
2021/04/08 04:15:09;;;;;;;2.83;1.83;;;;;;;17.79;40.28;100346.75;2068007;28;19913;-65
2021/04/08 04:16:09;;;;;;;;;;;;;;;17.74;40.57;100343.56;2064351;28;20038;-65
2021/04/08 04:17:36;;;;;;;2.20;1.50;;;;;;;17.73;40.41;100336.38;2069020;28;19991;-65
2021/04/08 04:18:38;;;;;;;2.30;1.80;;;;;;;17.76;40.35;100338.81;2068723;28;20084;-65
2021/04/08 04:19:38;;;;;;;3.17;1.70;;;;;;;17.75;40.24;100337.97;2069716;28;20084;-65
2021/04/08 04:20:38;;;;;;;3.38;1.70;;;;;;;17.76;40.31;100336.09;2069376;28;20038;-65
2021/04/08 04:21:39;;;;;;;4.13;2.63;;;;;;;17.76;40.29;100331.53;2069347;28;20088;-65
2021/04/08 04:22:40;;;;;;;3.05;1.90;;;;;;;17.75;40.33;100334.38;2068837;28;20018;-65
2021/04/08 04:23:42;;;;;;;2.90;1.77;;;;;;;17.77;40.22;100332.38;2069845;28;20030;-65
2021/04/08 04:24:43;;;;;;;3.58;1.90;;;;;;;17.79;40.15;100341.28;2069824;28;20034;-66
2021/04/08 04:25:43;;;;;;;2.60;1.83;;;;;;;17.78;40.24;100334.09;2069357;28;20148;-66
2021/04/08 04:26:44;;;;;;;2.17;1.60;;;;;;;17.77;40.19;100335.09;2069585;28;20360;-65
2021/04/08 04:27:44;;;;;;;3.13;1.80;;;;;;;17.78;40.32;100339.53;2067602;28;20052;-65
2021/04/08 04:28:44;;;;;;;2.40;1.53;;;;;;;17.76;40.29;100336.09;2069520;28;20017;-65
2021/04/08 04:29:45;;;;;;;1.97;1.50;;;;;;;17.76;40.21;100331.53;2069114;28;20032;-65
2021/04/08 04:30:45;;;;;;;3.43;2.00;;;;;;;17.77;40.33;100338.69;2066760;28;20527;-65
2021/04/08 04:31:46;;;;;;;2.72;1.92;;;;;;;17.76;40.40;100336.97;2069070;28;20017;-65
2021/04/08 04:32:46;;;;;;;2.73;1.53;;;;;;;17.76;40.21;100338.81;2068140;28;20033;-65
2021/04/08 04:33:47;;;;;;;2.13;1.40;;;;;;;17.76;40.31;100336.09;2070486;28;20045;-65
2021/04/08 04:34:47;;;;;;;3.57;1.93;;;;;;;17.75;40.26;100334.38;2067735;28;20021;-65
2021/04/08 04:35:48;;;;;;;2.40;1.70;;;;;;;17.75;40.33;100337.09;2069944;28;20049;-65
2021/04/08 04:36:48;;;;;;;3.27;1.90;;;;;;;17.74;40.15;100338.13;2069663;28;20033;-65
2021/04/08 04:37:50;;;;;;;2.00;1.23;;;;;;;17.75;40.21;100335.22;2068952;28;20113;-65
2021/04/08 04:38:50;;;;;;;2.60;1.60;;;;;;;17.75;40.19;100331.66;2070507;28;20466;-66
2021/04/08 04:39:50;;;;;;;2.67;1.60;;;;;;;17.77;40.19;100332.38;2068754;28;20026;-65
2021/04/08 04:40:51;;;;;;;3.03;1.93;;;;;;;17.77;40.20;100327.78;2069574;28;20101;-65
2021/04/08 04:41:51;;;;;;;2.43;1.60;;;;;;;17.80;40.19;100332.13;2069157;28;20568;-65
2021/04/08 04:42:52;;;;;;;2.77;1.90;;;;;;;17.79;40.09;100331.25;2069079;28;20026;-65
2021/04/08 04:43:52;;;;;;;4.23;1.90;;;;;;;17.79;40.24;100331.25;2070339;28;20100;-65
2021/04/08 04:44:53;;;;;;;2.20;1.30;;;;;;;17.79;40.17;100330.38;2068240;28;20108;-65
2021/04/08 04:45:53;;;;;;;2.83;1.50;;;;;;;17.79;40.11;100333.13;2070133;28;20022;-65
2021/04/08 04:46:55;;;;;;;1.93;1.40;;;;;;;17.81;40.17;100336.59;2066697;28;20022;-65
2021/04/08 04:47:55;;;;;;;3.65;1.77;;;;;;;17.81;40.23;100336.59;2066452;28;20037;-65
2021/04/08 04:48:55;;;;;;;2.57;1.57;;;;;;;17.81;40.39;100339.34;2070095;28;20068;-68
2021/04/08 04:49:56;;;;;;;2.97;1.77;;;;;;;17.81;40.09;100342.06;2066139;28;20030;-65
2021/04/08 04:50:56;;;;;;;2.67;1.70;;;;;;;17.81;40.10;100344.78;2069368;28;20109;-65
2021/04/08 04:51:57;;;;;;;2.33;1.73;;;;;;;17.82;40.16;100340.19;2069965;28;20744;-65
2021/04/08 04:52:58;;;;;;;2.23;1.47;;;;;;;17.83;40.21;100342.75;2069330;28;20030;-66